Chase, MD (21027)

12:28 PM EST on February 14, 2016 (GMT -0500)
Ryan's Station | | Change Station
CLOSE
Current Station
Personal Weather Station
Location: Middle River, MD
Elevation: 7 ft
Nearby Weather Stations

Elev 7 ft 39.32 °N, 76.42 °W | Updated 3 minutes ago

Clear
Clear
24.6 °F
Feels Like 21 °F
N
3.2
Wind Variable Wind from ESE

Today
High -- | Low -- °F
--% Chance of Precip.
Yesterday
High -- | Low -- °F
Precip. -- in
Pressure 30.59 in
Visibility 10.0 miles
Clouds Clear
Windchill 21 °F
Dew Point 3 °F
Humidity 38%
Rainfall 0.00 in
Snow Depth Not available.
6:59 AM 5:40 PM
Waxing Crescent, 43% visible
METAR KMTN 141645Z 29007G23KT 10SM SKC M06/M19 A3059
Pressure 30.59 in
Visibility 10.0 miles
Clouds Clear
Windchill 21 °F
Dew Point 3 °F
Humidity 38%
Rainfall 0.00 in
Snow Depth Not available.
6:59 AM 5:40 PM
Waxing Crescent, 43% visible
METAR KMTN 141645Z 29007G23KT 10SM SKC M06/M19 A3059

10-Day Weather Forecast

Almanac

Astronomy

Feb. 14, 2016 Rise Set
Actual Time
Civil Twilight
Nautical Twilight
Astronomical Twilight
Moon
Length of Visible Light
Length of Day
Tomorrow will be .
, % of the Moon is Illuminated

Today's Extremes

State Highs State Lows

Community

WunderPhotos

Upload Photos

1,892,856 photos uploaded!

WunderBlog® & News

Nearby

Air Quality

  Air Quality AQ Index Pollutant
Not available.

Snow Depth

Station Depth Elevation

Earthquake Activity

City Distance Mag. Time & Date
Minimum magnitude displayed is 2.5.

Coastal Water Temperatures

Place Temperature

Stations

Nearby Weather Stations

Station Location Temp. Windchill Dew Point Humidity Wind Precip. Elev Updated Type
                   

Watches & Warnings

There are currently no watches in effect.